Jaguaribara, Brazil
Current Conditions -  °F | °C
As of 5:00 PM on Sunday 21 Dec 2014 (Local Time) from SBJU Reporting Station
Few Clouds Few Clouds  
Wind Chill: 95°   Ceiling: Unl
Heat Index: 95°   Visibility: 6mi
Dew Point: 61°   Wind: 7mph
Humidity: 32%   Direction: 140°SE
Pressure: 29.91"   Gusts: NA
Location:  5.66°S, 38.62°W
Report Text: SBJU 212000Z 14006KT 9999 FEW023 35/16 Q1013
Loading
Personal Weather Stations






























Interactive Weather Map New forecast layout! Learn more

10-Day Weather Forecast

Advertisements
Track Severe Weather on mobile